createdAt,value
2023-04-25T00:01:49.483Z,81.81
2023-04-25T00:04:16.888Z,81.54
2023-04-25T00:06:43.504Z,82.03
2023-04-25T00:09:10.937Z,82.26
2023-04-25T00:11:39.016Z,82.05
2023-04-25T00:14:05.819Z,82.10
2023-04-25T00:16:34.825Z,82.31
2023-04-25T00:19:03.313Z,82.07
2023-04-25T00:21:29.837Z,82.18
2023-04-25T00:23:56.911Z,81.99
2023-04-25T00:26:23.307Z,82.51
2023-04-25T00:28:49.742Z,82.73
2023-04-25T00:31:16.127Z,82.72
2023-04-25T00:33:42.617Z,82.62
2023-04-25T00:36:09.620Z,82.77
2023-04-25T00:38:36.712Z,82.98
2023-04-25T00:41:03.260Z,82.76
2023-04-25T00:43:32.306Z,83.20
2023-04-25T00:46:01.389Z,83.29
2023-04-25T00:48:27.975Z,83.18
2023-04-25T00:50:56.112Z,83.24
2023-04-25T00:53:23.607Z,83.81
2023-04-25T00:55:52.004Z,83.75
2023-04-25T00:58:20.861Z,83.83
2023-04-25T01:00:48.875Z,84.19
2023-04-25T01:03:18.404Z,84.00
2023-04-25T01:05:44.891Z,84.07
2023-04-25T01:08:11.492Z,83.45
2023-04-25T01:10:38.138Z,84.01
2023-04-25T01:13:04.951Z,84.39
2023-04-25T01:15:31.668Z,84.33
2023-04-25T01:17:59.130Z,84.36
2023-04-25T01:20:25.972Z,84.63
2023-04-25T01:22:53.658Z,84.91
2023-04-25T01:25:20.651Z,85.29
2023-04-25T01:27:47.607Z,85.15
2023-04-25T01:30:14.948Z,85.02
2023-04-25T01:32:42.352Z,85.30
2023-04-25T01:35:10.699Z,84.43
2023-04-25T01:37:43.899Z,84.69
2023-04-25T01:40:11.999Z,85.20
2023-04-25T01:42:41.914Z,84.83
2023-04-25T01:45:09.532Z,84.53
2023-04-25T01:47:36.171Z,84.89
2023-04-25T01:50:03.795Z,84.81
2023-04-25T01:52:30.262Z,85.05
2023-04-25T01:54:58.417Z,85.02
2023-04-25T01:57:24.768Z,84.68
2023-04-25T01:59:51.347Z,84.99
2023-04-25T02:02:17.849Z,85.59
2023-04-25T02:04:44.482Z,85.34
2023-04-25T02:07:10.935Z,85.30
2023-04-25T02:09:37.267Z,85.39
2023-04-25T02:12:03.801Z,85.24
2023-04-25T02:14:30.283Z,84.76
2023-04-25T02:16:56.828Z,85.11
2023-04-25T02:19:23.471Z,84.56
2023-04-25T02:21:49.823Z,84.88
2023-04-25T02:24:16.328Z,84.79
2023-04-25T02:26:42.723Z,84.83
2023-04-25T02:29:09.073Z,85.03
2023-04-25T02:31:35.616Z,85.37
2023-04-25T02:34:02.001Z,85.22
2023-04-25T02:36:28.619Z,85.76
2023-04-25T02:38:55.081Z,85.48
2023-04-25T02:41:21.756Z,86.12
2023-04-25T02:43:48.328Z,86.04
2023-04-25T02:46:15.655Z,85.90
2023-04-25T02:48:44.434Z,85.85
2023-04-25T02:51:10.778Z,86.39
2023-04-25T02:53:37.342Z,86.27
2023-04-25T02:56:03.907Z,86.29
2023-04-25T02:58:30.515Z,86.58
2023-04-25T03:00:56.926Z,86.67
2023-04-25T03:03:23.395Z,86.64
2023-04-25T03:05:51.357Z,86.31
2023-04-25T03:08:19.025Z,86.17
2023-04-25T03:10:46.289Z,86.04
2023-04-25T03:13:12.752Z,86.32
2023-04-25T03:15:39.789Z,85.98
2023-04-25T03:18:06.160Z,86.12
2023-04-25T03:20:32.653Z,85.87
2023-04-25T03:22:59.212Z,85.81
2023-04-25T03:25:25.627Z,86.30
2023-04-25T03:27:52.022Z,86.14
2023-04-25T03:30:18.452Z,86.10
2023-04-25T03:32:44.855Z,85.91
2023-04-25T03:35:11.245Z,86.25
2023-04-25T03:37:37.666Z,85.76
2023-04-25T03:40:04.977Z,85.72
2023-04-25T03:42:31.337Z,85.91
2023-04-25T03:44:57.902Z,85.81
2023-04-25T03:47:24.322Z,85.75
2023-04-25T03:49:52.713Z,85.93
2023-04-25T03:52:19.280Z,86.06
2023-04-25T03:54:45.623Z,85.23
2023-04-25T03:57:12.057Z,85.54
2023-04-25T03:59:38.529Z,85.55
2023-04-25T04:02:04.976Z,85.41
2023-04-25T04:04:32.063Z,85.24
2023-04-25T04:06:58.607Z,85.34
2023-04-25T04:09:25.177Z,85.22
2023-04-25T04:11:51.549Z,85.61
2023-04-25T04:14:17.894Z,85.45
2023-04-25T04:16:44.250Z,85.83
2023-04-25T04:19:10.745Z,85.53
2023-04-25T04:21:37.315Z,85.16
2023-04-25T04:24:04.271Z,85.69
2023-04-25T04:26:33.100Z,86.02
2023-04-25T04:29:00.228Z,86.36
2023-04-25T04:31:26.740Z,86.74
2023-04-25T04:33:53.461Z,86.20
2023-04-25T04:36:23.913Z,86.40
2023-04-25T04:38:50.423Z,86.50
2023-04-25T04:41:17.158Z,86.52
2023-04-25T04:43:44.282Z,87.17
2023-04-25T04:46:11.314Z,87.39
2023-04-25T04:48:38.260Z,87.66
2023-04-25T04:51:04.719Z,87.56
2023-04-25T04:53:31.139Z,87.34
2023-04-25T04:55:57.507Z,87.19
2023-04-25T04:58:24.070Z,87.75
2023-04-25T05:00:50.735Z,88.02
2023-04-25T05:03:17.215Z,87.81
2023-04-25T05:05:43.791Z,87.82
2023-04-25T05:08:10.267Z,87.88
2023-04-25T05:10:36.695Z,88.14
2023-04-25T05:13:03.711Z,87.75
2023-04-25T05:15:30.828Z,87.45
2023-04-25T05:17:57.273Z,87.24
2023-04-25T05:20:23.758Z,87.55
2023-04-25T05:22:50.232Z,88.49
2023-04-25T05:25:16.575Z,88.37
2023-04-25T05:27:42.976Z,88.28
2023-04-25T05:30:10.526Z,88.56
2023-04-25T05:32:37.587Z,88.07
2023-04-25T05:35:04.529Z,87.92
2023-04-25T05:37:33.805Z,88.43
2023-04-25T05:40:00.278Z,87.82
2023-04-25T05:42:26.682Z,88.27
2023-04-25T05:44:53.159Z,88.04
2023-04-25T05:47:19.541Z,88.34
2023-04-25T05:49:46.058Z,88.34
2023-04-25T05:52:12.359Z,87.81
2023-04-25T05:54:38.740Z,87.74
2023-04-25T05:57:05.306Z,87.88
2023-04-25T05:59:31.667Z,87.33
2023-04-25T06:01:58.059Z,87.01
2023-04-25T06:04:24.927Z,87.03
2023-04-25T06:06:51.666Z,86.05
2023-04-25T06:09:18.028Z,85.77
2023-04-25T06:11:44.549Z,85.67
2023-04-25T06:14:10.969Z,85.56
2023-04-25T06:16:37.381Z,85.28
2023-04-25T06:19:03.828Z,85.41
2023-04-25T06:21:30.160Z,85.21
2023-04-25T06:23:56.554Z,84.38
2023-04-25T06:26:23.027Z,83.79
2023-04-25T06:28:49.402Z,83.19
2023-04-25T06:31:16.215Z,82.81
2023-04-25T06:33:42.751Z,82.96
2023-04-25T06:36:09.151Z,82.94
2023-04-25T06:38:36.354Z,82.40
2023-04-25T06:41:03.752Z,82.68
2023-04-25T06:43:33.955Z,82.33
2023-04-25T06:46:01.433Z,82.49
2023-04-25T06:48:28.668Z,82.12
2023-04-25T06:50:55.640Z,81.71
2023-04-25T06:53:22.047Z,81.60
2023-04-25T06:55:48.661Z,81.11
2023-04-25T06:58:15.322Z,80.70
2023-04-25T07:00:41.764Z,80.03
2023-04-25T07:03:10.219Z,79.86
2023-04-25T07:05:37.042Z,79.36
2023-04-25T07:08:04.095Z,78.55
2023-04-25T07:10:30.761Z,78.24
2023-04-25T07:12:57.174Z,79.11
2023-04-25T07:15:23.534Z,77.67
2023-04-25T07:17:49.945Z,77.33
2023-04-25T07:20:17.084Z,77.24
2023-04-25T07:22:43.947Z,76.42
2023-04-25T07:25:11.121Z,76.59
2023-04-25T07:27:37.566Z,75.91
2023-04-25T07:30:05.217Z,75.67
2023-04-25T07:32:31.671Z,75.46
2023-04-25T07:34:58.053Z,75.07
2023-04-25T07:37:24.502Z,75.11
2023-04-25T07:39:50.868Z,74.69
2023-04-25T07:42:17.212Z,74.85
2023-04-25T07:44:43.722Z,73.72
2023-04-25T07:47:11.276Z,73.57
2023-04-25T07:49:38.287Z,74.49
2023-04-25T07:52:07.175Z,74.65
2023-04-25T07:54:33.665Z,74.81
2023-04-25T07:57:00.643Z,74.72
2023-04-25T07:59:29.301Z,74.53
2023-04-25T08:01:58.210Z,74.64
2023-04-25T08:04:24.884Z,75.15
2023-04-25T08:06:51.568Z,75.08
2023-04-25T08:09:18.133Z,74.63
2023-04-25T08:11:44.738Z,73.18
2023-04-25T08:14:12.947Z,72.07
2023-04-25T08:16:39.737Z,70.39
2023-04-25T08:19:06.803Z,69.00
2023-04-25T08:21:33.947Z,68.74
2023-04-25T08:24:00.458Z,68.10
2023-04-25T08:26:26.916Z,68.38
2023-04-25T08:28:53.721Z,68.51
2023-04-25T08:31:20.393Z,67.93
2023-04-25T08:33:46.910Z,66.06
2023-04-25T08:36:15.775Z,65.72
2023-04-25T08:38:43.788Z,65.84
2023-04-25T08:41:12.651Z,66.12
2023-04-25T08:43:43.668Z,67.07
2023-04-25T08:46:10.594Z,67.63
2023-04-25T08:48:37.240Z,67.64
2023-04-25T08:53:36.259Z,68.37
2023-04-25T08:56:03.741Z,69.05
2023-04-25T08:58:30.342Z,68.99
2023-04-25T09:00:56.949Z,68.36
2023-04-25T09:03:23.693Z,68.61
2023-04-25T09:05:51.146Z,68.26
2023-04-25T09:08:17.917Z,68.32
2023-04-25T09:10:44.425Z,68.58
2023-04-25T09:13:13.910Z,68.61
2023-04-25T09:15:52.325Z,68.07
2023-04-25T09:18:30.980Z,68.27
2023-04-25T09:21:13.797Z,68.56
2023-04-25T09:23:46.764Z,69.28
2023-04-25T09:26:18.256Z,68.68
2023-04-25T09:28:44.977Z,67.67
2023-04-25T09:31:12.574Z,66.67
2023-04-25T09:33:40.297Z,65.67
2023-04-25T09:36:08.786Z,64.75
2023-04-25T09:38:45.729Z,63.12
2023-04-25T09:41:12.749Z,63.43
2023-04-25T09:43:40.426Z,63.33
2023-04-25T09:46:12.510Z,63.06
2023-04-25T09:48:39.039Z,63.54
2023-04-25T09:51:08.318Z,62.99
2023-04-25T09:53:43.310Z,63.35
2023-04-25T09:56:11.735Z,63.52
2023-04-25T09:58:40.066Z,63.84
2023-04-25T10:01:11.399Z,63.20
2023-04-25T10:03:43.400Z,63.86
2023-04-25T10:06:18.531Z,62.65
2023-04-25T10:08:45.842Z,63.12
2023-04-25T10:11:15.327Z,62.12
2023-04-25T10:13:42.655Z,61.12
2023-04-25T10:16:08.990Z,60.84
2023-04-25T10:18:35.570Z,61.39
2023-04-25T10:21:05.573Z,61.22
2023-04-25T10:23:32.732Z,60.80
2023-04-25T10:26:01.009Z,60.79
2023-04-25T10:28:27.661Z,60.06
2023-04-25T10:31:04.798Z,59.47
2023-04-25T10:33:38.832Z,59.45
2023-04-25T10:36:18.026Z,59.34
2023-04-25T10:38:45.872Z,58.71
2023-04-25T10:41:13.279Z,58.49
2023-04-25T10:43:47.129Z,57.67
2023-04-25T10:46:24.321Z,58.23
2023-04-25T10:48:51.791Z,57.94
2023-04-25T10:51:37.197Z,57.86
2023-04-25T10:54:10.169Z,58.57
2023-04-25T10:56:42.829Z,58.79
2023-04-25T10:59:17.378Z,59.11
2023-04-25T11:01:46.398Z,59.09
2023-04-25T11:04:22.816Z,59.75
2023-04-25T11:07:11.037Z,60.04
2023-04-25T11:09:41.056Z,59.83
2023-04-25T11:12:12.688Z,59.41
2023-04-25T11:17:12.050Z,59.14
2023-04-25T11:19:38.677Z,58.01
2023-04-25T11:22:05.001Z,57.99
2023-04-25T11:24:35.932Z,57.26
2023-04-25T11:27:04.938Z,57.74
2023-04-25T11:29:33.311Z,56.20
2023-04-25T11:32:01.107Z,56.41
2023-04-25T11:34:32.123Z,55.95
2023-04-25T11:36:59.384Z,53.31
2023-04-25T11:39:26.713Z,52.84
2023-04-25T11:41:54.015Z,52.27
2023-04-25T11:44:21.398Z,52.17
2023-04-25T11:46:48.466Z,52.26
2023-04-25T11:49:16.225Z,52.40
2023-04-25T11:51:44.350Z,51.50
2023-04-25T11:54:12.752Z,52.05
2023-04-25T11:56:45.783Z,52.19
2023-04-25T11:59:13.217Z,51.67
2023-04-25T12:01:49.524Z,51.73
2023-04-25T12:04:21.762Z,52.01
2023-04-25T12:06:50.817Z,50.97
2023-04-25T12:09:20.093Z,50.07
2023-04-25T12:11:54.240Z,49.62
2023-04-25T12:14:28.614Z,49.02
2023-04-25T12:17:03.597Z,47.92
2023-04-25T12:19:34.630Z,47.89
2023-04-25T12:22:01.855Z,48.11
2023-04-25T12:24:29.054Z,47.38
2023-04-25T12:27:07.332Z,46.85
2023-04-25T12:29:48.648Z,45.18
2023-04-25T12:32:16.593Z,45.07
2023-04-25T12:34:43.409Z,44.63
2023-04-25T12:37:10.164Z,45.68
2023-04-25T12:39:36.463Z,44.65
2023-04-25T12:42:03.343Z,45.10
2023-04-25T12:44:29.879Z,45.78
2023-04-25T12:46:56.473Z,46.40
2023-04-25T12:49:23.328Z,46.57
2023-04-25T12:51:49.759Z,47.11
2023-04-25T12:54:16.228Z,46.70
2023-04-25T12:56:43.170Z,47.26
2023-04-25T12:59:10.485Z,47.66
2023-04-25T13:01:37.442Z,47.47
2023-04-25T13:04:04.347Z,48.24
2023-04-25T13:06:31.790Z,48.45
2023-04-25T13:08:58.267Z,49.17
2023-04-25T13:11:24.961Z,49.24
2023-04-25T13:13:51.454Z,48.66
2023-04-25T13:16:18.530Z,48.49
2023-04-25T13:18:45.066Z,49.27
2023-04-25T13:21:14.364Z,49.19
2023-04-25T13:23:41.605Z,48.90
2023-04-25T13:26:07.907Z,48.10
2023-04-25T13:28:34.340Z,47.00
2023-04-25T13:31:00.881Z,47.23
2023-04-25T13:33:27.407Z,46.69
2023-04-25T13:35:58.177Z,46.58
2023-04-25T13:38:26.625Z,46.57
2023-04-25T13:40:53.720Z,47.28
2023-04-25T13:43:23.719Z,48.84
2023-04-25T13:45:51.262Z,49.97
2023-04-25T13:48:19.265Z,51.05
2023-04-25T13:50:46.051Z,52.38
2023-04-25T13:53:12.965Z,52.27
2023-04-25T13:55:39.943Z,52.70
2023-04-25T13:58:08.855Z,52.80
2023-04-25T14:00:40.370Z,52.44
2023-04-25T14:03:10.478Z,52.87
2023-04-25T14:05:38.928Z,51.91
2023-04-25T14:08:09.510Z,51.07
2023-04-25T14:10:36.469Z,49.40
2023-04-25T14:13:04.168Z,48.98
2023-04-25T14:15:32.970Z,48.21
2023-04-25T14:18:00.215Z,48.80
2023-04-25T14:20:27.301Z,48.79
2023-04-25T14:22:55.522Z,48.60
2023-04-25T14:25:22.190Z,47.68
2023-04-25T14:27:50.716Z,48.93
2023-04-25T14:30:22.130Z,49.25
2023-04-25T14:32:51.575Z,49.65
2023-04-25T14:35:18.711Z,49.44
2023-04-25T14:37:46.411Z,49.57
2023-04-25T14:40:16.108Z,49.46
2023-04-25T14:42:42.484Z,49.39
2023-04-25T14:45:09.669Z,48.30
2023-04-25T14:47:39.444Z,47.53
2023-04-25T14:50:09.654Z,47.41
2023-04-25T14:52:36.237Z,46.58
2023-04-25T14:55:06.472Z,45.68
2023-04-25T14:57:36.298Z,44.47
2023-04-25T15:00:06.050Z,42.71
2023-04-25T15:02:32.571Z,43.79
2023-04-25T15:04:59.411Z,43.80
2023-04-25T15:07:26.814Z,43.51
2023-04-25T15:09:54.337Z,43.28
2023-04-25T15:12:21.393Z,43.44
2023-04-25T15:14:47.964Z,44.05
2023-04-25T15:17:15.164Z,44.29
2023-04-25T15:19:41.553Z,44.58
2023-04-25T15:22:08.041Z,44.67
2023-04-25T15:24:34.434Z,45.22
2023-04-25T15:27:00.812Z,44.86
2023-04-25T15:29:28.184Z,44.17
2023-04-25T15:31:54.697Z,44.51
2023-04-25T15:34:21.275Z,44.83
2023-04-25T15:36:47.712Z,44.48
2023-04-25T15:39:14.160Z,44.26
2023-04-25T15:41:40.621Z,44.93
2023-04-25T15:44:07.896Z,45.64
2023-04-25T15:46:34.338Z,46.56
2023-04-25T15:49:00.966Z,47.75
2023-04-25T15:51:28.136Z,48.71
2023-04-25T15:53:54.691Z,49.54
2023-04-25T15:56:21.405Z,51.32
2023-04-25T15:58:48.311Z,51.00
2023-04-25T16:01:14.956Z,50.21
2023-04-25T16:03:41.566Z,49.65
2023-04-25T16:06:08.140Z,49.27
2023-04-25T16:08:35.735Z,49.37
2023-04-25T16:11:03.156Z,49.20
2023-04-25T16:13:30.317Z,49.34
2023-04-25T16:15:56.814Z,49.23
2023-04-25T16:18:23.344Z,49.04
2023-04-25T16:20:49.993Z,49.50
2023-04-25T16:23:16.369Z,49.82
2023-04-25T16:25:43.194Z,50.60
2023-04-25T16:28:09.779Z,50.78
2023-04-25T16:30:36.167Z,50.00
2023-04-25T16:33:02.652Z,49.78
2023-04-25T16:35:32.363Z,49.14
2023-04-25T16:37:58.813Z,49.08
2023-04-25T16:40:25.327Z,49.71
2023-04-25T16:42:51.688Z,49.78
2023-04-25T16:45:20.111Z,49.51
2023-04-25T16:47:46.651Z,50.33
2023-04-25T16:50:14.447Z,49.82
2023-04-25T16:52:41.887Z,50.49
2023-04-25T16:55:09.252Z,50.72
2023-04-25T16:57:38.597Z,50.88
2023-04-25T17:00:06.920Z,51.24
2023-04-25T17:02:33.593Z,51.11
2023-04-25T17:05:00.016Z,51.05
2023-04-25T17:07:26.725Z,51.41
2023-04-25T17:09:53.210Z,50.51
2023-04-25T17:12:19.919Z,49.99
2023-04-25T17:14:46.691Z,50.62
2023-04-25T17:17:13.489Z,50.15
2023-04-25T17:19:39.901Z,49.14
2023-04-25T17:22:07.206Z,49.79
2023-04-25T17:24:33.665Z,49.65
2023-04-25T17:27:00.034Z,49.61
2023-04-25T17:29:27.932Z,49.84
2023-04-25T17:31:54.448Z,50.01
2023-04-25T17:34:21.364Z,49.63
2023-04-25T17:36:48.421Z,48.99
2023-04-25T17:39:17.082Z,48.47
2023-04-25T17:41:44.444Z,48.80
2023-04-25T17:44:10.842Z,48.88
2023-04-25T17:46:37.512Z,49.82
2023-04-25T17:49:04.007Z,50.13
2023-04-25T17:51:31.457Z,50.48
2023-04-25T17:53:57.896Z,50.38
2023-04-25T17:56:27.154Z,50.76
2023-04-25T17:58:54.068Z,51.24
2023-04-25T18:01:20.870Z,51.08
2023-04-25T18:03:49.829Z,50.86
2023-04-25T18:06:16.981Z,51.38
2023-04-25T18:08:44.515Z,50.52
2023-04-25T18:11:10.940Z,49.53
2023-04-25T18:13:38.578Z,49.85
2023-04-25T18:16:05.420Z,50.03
2023-04-25T18:18:34.257Z,50.61
2023-04-25T18:21:03.867Z,50.73
2023-04-25T18:23:32.331Z,50.93
2023-04-25T18:25:58.772Z,49.82
2023-04-25T18:28:25.341Z,49.48
2023-04-25T18:30:51.779Z,48.47
2023-04-25T18:33:18.198Z,49.22
2023-04-25T18:35:51.706Z,49.11
2023-04-25T18:38:35.683Z,49.85
2023-04-25T18:41:20.648Z,50.40
2023-04-25T18:43:49.770Z,50.95
2023-04-25T18:46:17.461Z,50.73
2023-04-25T18:48:43.948Z,51.22
2023-04-25T18:51:10.555Z,51.37
2023-04-25T18:53:37.388Z,51.83
2023-04-25T18:56:04.652Z,51.77
2023-04-25T18:58:30.988Z,51.89
2023-04-25T19:00:57.407Z,52.36
2023-04-25T19:03:24.340Z,52.38
2023-04-25T19:05:50.818Z,52.70
2023-04-25T19:08:17.777Z,52.87
2023-04-25T19:10:44.588Z,52.96
2023-04-25T19:13:11.047Z,53.43
2023-04-25T19:15:37.835Z,53.49
2023-04-25T19:18:04.852Z,53.52
2023-04-25T19:20:33.210Z,53.43
2023-04-25T19:22:59.572Z,53.48
2023-04-25T19:25:26.337Z,53.91
2023-04-25T19:27:52.981Z,53.98
2023-04-25T19:30:19.842Z,54.22
2023-04-25T19:32:46.382Z,54.59
2023-04-25T19:35:13.425Z,54.47
2023-04-25T19:37:45.821Z,54.47
2023-04-25T19:40:16.548Z,54.77
2023-04-25T19:42:43.793Z,54.91
2023-04-25T19:45:11.432Z,55.58
2023-04-25T19:47:38.342Z,55.52
2023-04-25T19:50:08.614Z,56.03
2023-04-25T19:52:35.892Z,56.34
2023-04-25T19:55:04.714Z,56.41
2023-04-25T19:57:34.965Z,56.29
2023-04-25T20:00:04.874Z,56.18
2023-04-25T20:02:31.544Z,55.98
2023-04-25T20:04:58.040Z,56.96
2023-04-25T20:07:24.650Z,56.85
2023-04-25T20:09:51.011Z,56.88
2023-04-25T20:12:18.076Z,56.97
2023-04-25T20:14:45.020Z,57.42
2023-04-25T20:17:11.987Z,57.34
2023-04-25T20:19:39.161Z,57.79
2023-04-25T20:22:06.246Z,57.67
2023-04-25T20:24:32.775Z,57.83
2023-04-25T20:26:59.214Z,57.77
2023-04-25T20:29:26.404Z,57.41
2023-04-25T20:31:53.864Z,57.61
2023-04-25T20:34:21.601Z,58.19
2023-04-25T20:36:51.316Z,58.40
2023-04-25T20:39:17.726Z,58.16
2023-04-25T20:41:47.357Z,58.61
2023-04-25T20:44:13.921Z,58.57
2023-04-25T20:46:40.618Z,58.79
2023-04-25T20:49:07.667Z,59.24
2023-04-25T20:51:37.085Z,59.38
2023-04-25T20:54:06.947Z,59.39
2023-04-25T20:56:35.725Z,59.61
2023-04-25T20:59:02.085Z,59.62
2023-04-25T21:01:28.969Z,59.86
2023-04-25T21:03:55.638Z,60.11
2023-04-25T21:06:22.190Z,60.46
2023-04-25T21:08:48.854Z,60.78
2023-04-25T21:11:15.383Z,61.17
2023-04-25T21:13:41.777Z,60.50
2023-04-25T21:16:08.282Z,60.89
2023-04-25T21:18:34.796Z,61.65
2023-04-25T21:21:05.179Z,61.75
2023-04-25T21:23:32.193Z,62.27
2023-04-25T21:25:58.583Z,62.75
2023-04-25T21:28:25.063Z,63.71
2023-04-25T21:30:51.698Z,63.23
2023-04-25T21:33:18.773Z,64.04
2023-04-25T21:35:45.966Z,64.65
2023-04-25T21:38:12.763Z,65.13
2023-04-25T21:40:40.134Z,65.14
2023-04-25T21:43:06.553Z,65.44
2023-04-25T21:45:33.137Z,65.56
2023-04-25T21:47:59.603Z,66.17
2023-04-25T21:50:26.017Z,66.77
2023-04-25T21:52:54.128Z,67.40
2023-04-25T21:55:22.010Z,67.90
2023-04-25T21:57:48.410Z,67.76
2023-04-25T22:00:22.123Z,67.93
2023-04-25T22:02:48.638Z,68.04
2023-04-25T22:05:15.338Z,68.21
2023-04-25T22:07:42.476Z,68.57
2023-04-25T22:10:09.333Z,68.40
2023-04-25T22:12:35.711Z,68.57
2023-04-25T22:15:03.321Z,68.84
2023-04-25T22:17:31.189Z,69.25
2023-04-25T22:19:57.880Z,68.90
2023-04-25T22:22:24.482Z,69.18
2023-04-25T22:24:51.467Z,69.63
2023-04-25T22:27:18.416Z,69.68
2023-04-25T22:29:44.858Z,70.21
2023-04-25T22:32:11.193Z,70.35
2023-04-25T22:34:37.654Z,70.57
2023-04-25T22:37:04.711Z,70.94
2023-04-25T22:39:31.096Z,71.12
2023-04-25T22:41:58.320Z,71.18
2023-04-25T22:44:24.751Z,71.17
2023-04-25T22:46:51.086Z,71.46
2023-04-25T22:49:17.439Z,71.47
2023-04-25T22:51:44.006Z,72.00
2023-04-25T22:54:10.367Z,72.41
2023-04-25T22:56:37.748Z,72.03
2023-04-25T22:59:04.777Z,72.14
2023-04-25T23:01:31.461Z,72.43
2023-04-25T23:03:58.460Z,72.45
2023-04-25T23:06:25.093Z,72.41
2023-04-25T23:08:51.597Z,72.08
2023-04-25T23:11:18.134Z,72.69
2023-04-25T23:13:45.439Z,73.08
2023-04-25T23:16:12.689Z,73.04
2023-04-25T23:18:40.836Z,72.92
2023-04-25T23:21:09.119Z,73.20
2023-04-25T23:23:36.412Z,74.10
2023-04-25T23:26:10.153Z,74.57
2023-04-25T23:28:41.973Z,75.12
2023-04-25T23:31:10.338Z,75.53
2023-04-25T23:33:36.904Z,75.41
2023-04-25T23:36:03.602Z,75.59
2023-04-25T23:38:29.956Z,75.72
2023-04-25T23:40:56.303Z,75.86
2023-04-25T23:43:22.799Z,75.67
2023-04-25T23:45:49.378Z,75.79
2023-04-25T23:48:15.897Z,75.82
2023-04-25T23:50:42.482Z,76.09
2023-04-25T23:53:09.486Z,76.21
2023-04-25T23:55:36.129Z,76.88
2023-04-25T23:58:03.569Z,77.24
